Tuesday, May 24, 2016, 3:26 PM EDT

KJYO, Leesburg / Godfrey

Location: Leesburg, VA, United States Lat: 39.083
Local Time: 3:26 PM EDT (19:26 GMT) Lon: -77.567
Time Zone: US/Eastern Elev: 390 ft

Show me the last for .
Show Decoded

2016-05-24 14:55 METAR KJYO 241855Z AUTO 31012G20KT 10SM SCT070 27/11 A3001 RMK AO2 =
2016-05-24 14:35 METAR KJYO 241835Z AUTO 28010G18KT 250V330 10SM SCT070 28/12 A3001 RMK AO2 =
2016-05-24 14:15 METAR KJYO 241815Z AUTO 30008G18KT 10SM SCT070 27/12 A3002 RMK AO2 =
2016-05-24 13:55 METAR KJYO 241755Z AUTO 31011G16KT 10SM CLR 27/12 A3002 RMK AO2 =
2016-05-24 13:35 METAR KJYO 241735Z AUTO 34010G19KT 10SM CLR 27/12 A3003 RMK AO2 =
2016-05-24 13:15 METAR KJYO 241715Z AUTO 32012KT 10SM CLR 27/12 A3003 RMK AO2 =
2016-05-24 12:55 METAR KJYO 241655Z AUTO 29010G14KT 280V350 10SM CLR 26/12 A3004 RMK AO2 =
2016-05-24 12:35 METAR KJYO 241635Z AUTO 33008G16KT 300V010 10SM CLR 26/11 A3005 RMK AO2 =
2016-05-24 12:15 METAR KJYO 241615Z AUTO 31007G19KT 300V020 10SM CLR 26/13 A3004 RMK AO2 =
2016-05-24 11:55 METAR KJYO 241555Z AUTO 32010G16KT 10SM CLR 26/13 A3005 RMK AO2 =
2016-05-24 11:35 METAR KJYO 241535Z AUTO 32008G14KT 10SM CLR 25/14 A3005 RMK AO2 =
2016-05-24 11:15 METAR KJYO 241515Z AUTO 31008KT 10SM CLR 24/14 A3005 RMK AO2 =
2016-05-24 10:55 METAR KJYO 241455Z AUTO 32010G21KT 10SM CLR 23/13 A3005 RMK AO2 =
2016-05-24 10:35 METAR KJYO 241435Z AUTO 31012G19KT 10SM CLR 23/14 A3004 RMK AO2 =
2016-05-24 10:15 METAR KJYO 241415Z AUTO 32008KT 10SM CLR 23/13 A3005 RMK AO2 =
2016-05-24 09:55 METAR KJYO 241355Z AUTO 32011G18KT 290V350 10SM CLR 22/13 A3004 RMK AO2 =
2016-05-24 09:35 METAR KJYO 241335Z AUTO 33010G18KT 10SM CLR 22/13 A3004 RMK AO2 =
2016-05-24 09:15 METAR KJYO 241315Z AUTO 31011G17KT 10SM CLR 21/13 A3003 RMK AO2 =
2016-05-24 08:55 METAR KJYO 241255Z AUTO 32010G16KT 280V340 10SM CLR 21/14 A3004 RMK AO2 =
2016-05-24 08:35 METAR KJYO 241235Z AUTO 32009KT 10SM CLR 20/14 A3003 RMK AO2 =
2016-05-24 08:15 METAR KJYO 241215Z AUTO 33005KT 10SM SCT002 19/13 A3003 RMK AO2 =
2016-05-24 07:55 METAR KJYO 241155Z AUTO 34003KT 10SM CLR 19/13 A3002 RMK AO2 =
2016-05-24 07:35 METAR KJYO 241135Z AUTO 00000KT 10SM CLR 17/13 A3001 RMK AO2 =
2016-05-24 07:15 METAR KJYO 241115Z AUTO 00000KT 10SM CLR 17/13 A3000 RMK AO2 =
2016-05-24 06:55 METAR KJYO 241055Z AUTO 28009KT 10SM CLR 16/13 A2999 RMK AO2 =
2016-05-24 06:35 METAR KJYO 241035Z AUTO 31006KT 10SM CLR 16/13 A2999 RMK AO2 =
2016-05-24 06:15 METAR KJYO 241015Z AUTO 32005KT 10SM CLR 16/13 A2998 RMK AO2 =
2016-05-24 05:55 METAR KJYO 240955Z AUTO 29009KT 10SM CLR 15/12 A2998 RMK AO2 =
2016-05-24 05:35 METAR KJYO 240935Z AUTO 00000KT 10SM CLR 15/13 A2997 RMK AO2 =
2016-05-24 05:15 METAR KJYO 240915Z AUTO 28008KT 10SM CLR 15/13 A2996 RMK AO2 =
2016-05-24 04:55 METAR KJYO 240855Z AUTO 28007KT 10SM CLR 14/13 A2996 RMK AO2 =
2016-05-24 04:35 METAR KJYO 240835Z AUTO 28005KT 10SM CLR 14/13 A2996 RMK AO2 =
2016-05-24 04:15 METAR KJYO 240815Z AUTO 28006KT 10SM CLR 14/13 A2996 RMK AO2 =
2016-05-24 03:55 METAR KJYO 240755Z AUTO 28004KT 10SM SCT120 15/13 A2996 RMK AO2 =
2016-05-24 03:35 METAR KJYO 240735Z AUTO 26004KT 10SM SCT120 15/14 A2996 RMK AO2 =
2016-05-24 03:15 METAR KJYO 240715Z AUTO 27006KT 10SM SCT120 15/15 A2996 RMK AO2 =
2016-05-24 02:55 METAR KJYO 240655Z AUTO 27004KT 10SM SCT075 SCT095 OVC120 15/15 A2996 RMK AO2
                 LTG DSNT E =
2016-05-24 02:35 METAR KJYO 240635Z AUTO 23005KT 10SM BKN075 BKN095 BKN120 15/15 A2997 RMK AO2 =
2016-05-24 02:15 METAR KJYO 240615Z AUTO 26003KT 10SM BKN075 OVC095 15/15 A2998 RMK AO2 =
2016-05-24 01:55 METAR KJYO 240555Z AUTO 00000KT 10SM BKN085 BKN100 15/15 A2999 RMK AO2 =
2016-05-24 01:35 METAR KJYO 240535Z AUTO 06005KT 10SM SCT085 15/14 A2998 RMK AO2 =
2016-05-24 01:15 METAR KJYO 240515Z AUTO 00000KT 10SM CLR 15/14 A2997 RMK AO2 =
2016-05-24 00:55 METAR KJYO 240455Z AUTO 00000KT 10SM CLR 15/15 A2996 RMK AO2 =
2016-05-24 00:35 METAR KJYO 240435Z AUTO 26004KT 10SM CLR 15/15 A2996 RMK AO2 =
2016-05-24 00:15 METAR KJYO 240415Z AUTO 23004KT 10SM CLR 15/15 A2997 RMK AO2 =
2016-05-23 23:55 METAR KJYO 240355Z AUTO 24005KT 10SM CLR 16/15 A2997 RMK AO2 LTG DSNT E =
2016-05-23 23:35 METAR KJYO 240335Z AUTO 26006KT 10SM CLR 15/15 A2998 RMK AO2 =
2016-05-23 23:15 METAR KJYO 240315Z AUTO 25005KT 10SM CLR 16/15 A2999 RMK AO2 =
2016-05-23 22:55 METAR KJYO 240255Z AUTO 23004KT 10SM CLR 16/15 A2998 RMK AO2 =
2016-05-23 22:35 METAR KJYO 240235Z AUTO 24003KT 10SM BKN080 16/15 A2999 RMK AO2 =
2016-05-23 22:15 METAR KJYO 240215Z AUTO 24003KT 10SM OVC090 16/16 A3000 RMK AO2 =
2016-05-23 21:55 METAR KJYO 240155Z AUTO 25004KT 10SM OVC100 17/16 A2999 RMK AO2 =
2016-05-23 21:35 METAR KJYO 240135Z AUTO 28005KT 10SM BKN100 OVC120 17/16 A2999 RMK AO2 =
2016-05-23 21:15 METAR KJYO 240115Z AUTO 25004G14KT 10SM BKN100 OVC120 17/16 A2997 RMK AO2 =
2016-05-23 20:55 METAR KJYO 240055Z AUTO 26006KT 10SM OVC100 16/16 A2996 RMK AO2 =
2016-05-23 20:35 METAR KJYO 240035Z AUTO 25006KT 10SM OVC110 17/16 A2996 RMK AO2 =
2016-05-23 20:15 METAR KJYO 240015Z AUTO 22006KT 10SM BKN120 17/16 A2997 RMK AO2 LTG DSNT SE AND
                 SW =
2016-05-23 19:55 METAR KJYO 232355Z AUTO 16007KT 10SM SCT110 17/16 A2996 RMK AO2 =
2016-05-23 19:35 METAR KJYO 232335Z AUTO 14007KT 10SM SCT080 SCT100 17/16 A2997 RMK AO2 =
2016-05-23 19:15 METAR KJYO 232315Z AUTO 14004KT 10SM SCT080 BKN110 17/16 A2996 RMK AO2 LTG DSNT
                 SW =
2016-05-23 18:55 METAR KJYO 232255Z AUTO 13005KT 10SM SCT120 17/16 A2995 RMK AO2 =
2016-05-23 18:35 METAR KJYO 232235Z AUTO 11004KT 10SM SCT060 SCT070 SCT120 17/16 A2995 RMK AO2
                 LTG DSNT SE AND S =
2016-05-23 18:15 METAR KJYO 232215Z AUTO 12003G15KT 10SM SCT050 BKN065 BKN090 18/16 A2995 RMK AO2
                 LTG DSNT SE AND S =
2016-05-23 17:55 METAR KJYO 232155Z AUTO 06019G33KT 350V120 10SM -TSRA SCT050 BKN065 OVC090 23/13
                 A2992 RMK AO2 LTG DSNT E THRU S =
2016-05-23 17:35 METAR KJYO 232135Z AUTO 32010KT 10SM VCTS SCT065 SCT080 OVC110 23/12 A2990 RMK
                 AO2 LTG DSNT E AND S =
2016-05-23 17:15 METAR KJYO 232115Z AUTO 36012G16KT 10SM TS SCT110 25/11 A2991 RMK AO2 LTG DSNT
                 SE =
2016-05-23 16:55 METAR KJYO 232055Z AUTO 32010G21KT 10SM CLR 25/13 A2991 RMK AO2 LTG DSNT SE =
2016-05-23 16:35 METAR KJYO 232035Z AUTO 33010G19KT 10SM CLR 25/13 A2990 RMK AO2 LTG DSNT E S AND
                 NW =
2016-05-23 16:15 METAR KJYO 232015Z AUTO 33009G15KT 10SM VCTS SCT055 SCT110 25/13 A2991 RMK AO2
                 LTG DSNT E AND S =
2016-05-23 15:55 METAR KJYO 231955Z AUTO 31009KT 10SM BKN110 24/12 A2992 RMK AO2 LTG DSNT NE E
                 AND SW =
2016-05-23 15:35 METAR KJYO 231935Z AUTO 31009G15KT 10SM CLR 25/11 A2993 RMK AO2 LTG DSNT SE =

Support USWX by starting your Amazon purchase here.